sensor_id;sensor_type;location;lat;lon;timestamp;pressure;altitude;pressure_sealevel;temperature;humidity
54948;BME280;41113;41.882;12.530;2022-08-19T00:01:34;100391.13;;;27.69;74.01
54948;BME280;41113;41.882;12.530;2022-08-19T00:04:02;100359.38;;;27.49;75.55
54948;BME280;41113;41.882;12.530;2022-08-19T00:06:29;100372.44;;;27.37;75.52
54948;BME280;41113;41.882;12.530;2022-08-19T00:08:56;100384.78;;;27.51;74.80
54948;BME280;41113;41.882;12.530;2022-08-19T00:11:22;100381.56;;;27.59;74.12
54948;BME280;41113;41.882;12.530;2022-08-19T00:13:47;100360.31;;;27.60;74.10
54948;BME280;41113;41.882;12.530;2022-08-19T00:16:16;100311.38;;;27.50;74.37
54948;BME280;41113;41.882;12.530;2022-08-19T00:18:44;100326.25;;;27.49;74.25
54948;BME280;41113;41.882;12.530;2022-08-19T00:21:09;100366.34;;;27.57;73.63
54948;BME280;41113;41.882;12.530;2022-08-19T00:23:35;100392.03;;;27.57;73.95
54948;BME280;41113;41.882;12.530;2022-08-19T00:26:04;100366.88;;;27.54;73.97
54948;BME280;41113;41.882;12.530;2022-08-19T00:28:31;100337.31;;;27.49;74.20
54948;BME280;41113;41.882;12.530;2022-08-19T00:30:57;100350.63;;;27.57;73.79
54948;BME280;41113;41.882;12.530;2022-08-19T00:33:22;100325.53;;;27.59;73.68
54948;BME280;41113;41.882;12.530;2022-08-19T00:35:47;100271.34;;;27.26;75.70
54948;BME280;41113;41.882;12.530;2022-08-19T00:38:13;100303.75;;;27.36;74.74
54948;BME280;41113;41.882;12.530;2022-08-19T00:40:39;100361.03;;;27.50;73.93
54948;BME280;41113;41.882;12.530;2022-08-19T00:43:10;100381.25;;;27.56;73.78
54948;BME280;41113;41.882;12.530;2022-08-19T00:45:36;100422.69;;;27.61;73.37
54948;BME280;41113;41.882;12.530;2022-08-19T00:48:03;100394.78;;;27.57;73.79
54948;BME280;41113;41.882;12.530;2022-08-19T00:50:29;100373.22;;;27.54;74.10
54948;BME280;41113;41.882;12.530;2022-08-19T00:52:55;100383.75;;;27.57;74.21
54948;BME280;41113;41.882;12.530;2022-08-19T00:55:25;100405.31;;;27.60;73.76
54948;BME280;41113;41.882;12.530;2022-08-19T00:57:56;100432.88;;;27.60;73.91
54948;BME280;41113;41.882;12.530;2022-08-19T01:00:24;100424.53;;;27.55;74.10
54948;BME280;41113;41.882;12.530;2022-08-19T01:02:52;100411.25;;;27.52;74.14
54948;BME280;41113;41.882;12.530;2022-08-19T01:05:22;100374.88;;;27.55;73.99
54948;BME280;41113;41.882;12.530;2022-08-19T01:07:49;100339.56;;;27.14;76.44
54948;BME280;41113;41.882;12.530;2022-08-19T01:10:19;100319.56;;;27.02;76.64
54948;BME280;41113;41.882;12.530;2022-08-19T01:12:47;100400.72;;;27.11;78.81
54948;BME280;41113;41.882;12.530;2022-08-19T01:15:16;100438.13;;;27.23;75.14
54948;BME280;41113;41.882;12.530;2022-08-19T01:17:44;100416.25;;;27.34;74.60
54948;BME280;41113;41.882;12.530;2022-08-19T01:20:13;100390.16;;;27.41;74.34
54948;BME280;41113;41.882;12.530;2022-08-19T01:22:48;100406.19;;;27.44;74.74
54948;BME280;41113;41.882;12.530;2022-08-19T01:25:16;100396.25;;;27.43;74.25
54948;BME280;41113;41.882;12.530;2022-08-19T01:27:45;100405.94;;;27.46;74.71
54948;BME280;41113;41.882;12.530;2022-08-19T01:30:17;100386.63;;;27.46;74.38
54948;BME280;41113;41.882;12.530;2022-08-19T01:32:43;100359.31;;;27.44;74.47
54948;BME280;41113;41.882;12.530;2022-08-19T01:35:10;100351.22;;;27.38;75.24
54948;BME280;41113;41.882;12.530;2022-08-19T01:37:52;100330.56;;;27.40;75.47
54948;BME280;41113;41.882;12.530;2022-08-19T01:40:19;100333.06;;;27.42;75.18
54948;BME280;41113;41.882;12.530;2022-08-19T01:42:49;100321.13;;;27.36;75.17
54948;BME280;41113;41.882;12.530;2022-08-19T01:45:17;100314.28;;;27.39;75.39
54948;BME280;41113;41.882;12.530;2022-08-19T01:47:43;100308.50;;;27.40;75.26
54948;BME280;41113;41.882;12.530;2022-08-19T01:50:10;100320.69;;;27.44;74.86
54948;BME280;41113;41.882;12.530;2022-08-19T01:52:37;100329.78;;;27.45;74.81
54948;BME280;41113;41.882;12.530;2022-08-19T01:55:06;100333.06;;;27.42;75.21
54948;BME280;41113;41.882;12.530;2022-08-19T01:57:33;100350.19;;;27.44;75.10
54948;BME280;41113;41.882;12.530;2022-08-19T01:59:59;100373.09;;;27.44;75.00
54948;BME280;41113;41.882;12.530;2022-08-19T02:02:25;100389.56;;;27.39;75.55
54948;BME280;41113;41.882;12.530;2022-08-19T02:04:50;100379.63;;;27.38;75.34
54948;BME280;41113;41.882;12.530;2022-08-19T02:07:19;100367.69;;;27.33;76.05
54948;BME280;41113;41.882;12.530;2022-08-19T02:09:45;100369.47;;;27.22;76.43
54948;BME280;41113;41.882;12.530;2022-08-19T02:12:10;100357.28;;;27.18;76.85
54948;BME280;41113;41.882;12.530;2022-08-19T02:14:36;100348.41;;;27.16;76.63
54948;BME280;41113;41.882;12.530;2022-08-19T02:17:02;100332.38;;;27.13;76.47
54948;BME280;41113;41.882;12.530;2022-08-19T02:19:28;100317.00;;;27.17;76.20
54948;BME280;41113;41.882;12.530;2022-08-19T02:21:53;100317.84;;;27.17;75.93
54948;BME280;41113;41.882;12.530;2022-08-19T02:24:19;100338.22;;;27.16;75.92
54948;BME280;41113;41.882;12.530;2022-08-19T02:26:44;100350.41;;;27.20;75.23
54948;BME280;41113;41.882;12.530;2022-08-19T02:29:10;100346.25;;;27.18;74.98
54948;BME280;41113;41.882;12.530;2022-08-19T02:31:35;100338.63;;;27.25;74.42
54948;BME280;41113;41.882;12.530;2022-08-19T02:34:01;100346.63;;;27.26;73.84
54948;BME280;41113;41.882;12.530;2022-08-19T02:36:27;100356.00;;;27.25;74.04
54948;BME280;41113;41.882;12.530;2022-08-19T02:38:53;100348.50;;;27.21;74.13
54948;BME280;41113;41.882;12.530;2022-08-19T02:41:27;100358.44;;;27.22;73.81
54948;BME280;41113;41.882;12.530;2022-08-19T02:43:55;100359.97;;;27.13;73.69
54948;BME280;41113;41.882;12.530;2022-08-19T02:46:24;100365.16;;;27.09;73.84
54948;BME280;41113;41.882;12.530;2022-08-19T02:48:54;100362.66;;;27.08;73.96
54948;BME280;41113;41.882;12.530;2022-08-19T02:51:23;100360.66;;;27.03;73.94
54948;BME280;41113;41.882;12.530;2022-08-19T02:53:49;100367.81;;;27.04;73.51
54948;BME280;41113;41.882;12.530;2022-08-19T02:56:14;100384.47;;;26.97;73.60
54948;BME280;41113;41.882;12.530;2022-08-19T02:58:41;100378.31;;;26.90;73.94
54948;BME280;41113;41.882;12.530;2022-08-19T03:01:06;100383.31;;;26.93;73.72
54948;BME280;41113;41.882;12.530;2022-08-19T03:03:32;100387.16;;;26.92;73.52
54948;BME280;41113;41.882;12.530;2022-08-19T03:06:09;100378.50;;;26.84;74.11
54948;BME280;41113;41.882;12.530;2022-08-19T03:08:36;100369.78;;;26.92;73.52
54948;BME280;41113;41.882;12.530;2022-08-19T03:11:02;100366.28;;;26.96;73.32
54948;BME280;41113;41.882;12.530;2022-08-19T03:13:28;100374.28;;;26.98;72.93
54948;BME280;41113;41.882;12.530;2022-08-19T03:15:53;100375.88;;;26.94;73.35
54948;BME280;41113;41.882;12.530;2022-08-19T03:18:19;100387.34;;;26.86;73.45
54948;BME280;41113;41.882;12.530;2022-08-19T03:20:47;100394.19;;;26.83;73.61
54948;BME280;41113;41.882;12.530;2022-08-19T03:23:14;100383.16;;;26.83;73.33
54948;BME280;41113;41.882;12.530;2022-08-19T03:25:42;100373.72;;;26.79;73.71
54948;BME280;41113;41.882;12.530;2022-08-19T03:28:14;100390.34;;;26.84;73.06
54948;BME280;41113;41.882;12.530;2022-08-19T03:30:41;100395.69;;;26.91;72.69
54948;BME280;41113;41.882;12.530;2022-08-19T03:33:10;100394.84;;;26.90;72.67
54948;BME280;41113;41.882;12.530;2022-08-19T03:35:36;100392.53;;;26.82;73.57
54948;BME280;41113;41.882;12.530;2022-08-19T03:38:03;100388.50;;;26.90;72.88
54948;BME280;41113;41.882;12.530;2022-08-19T03:40:29;100388.84;;;26.93;72.29
54948;BME280;41113;41.882;12.530;2022-08-19T03:42:56;100388.00;;;26.93;72.37
54948;BME280;41113;41.882;12.530;2022-08-19T03:45:22;100390.50;;;26.94;72.10
54948;BME280;41113;41.882;12.530;2022-08-19T03:47:47;100394.19;;;26.83;72.35
54948;BME280;41113;41.882;12.530;2022-08-19T03:50:13;100401.88;;;26.81;72.52
54948;BME280;41113;41.882;12.530;2022-08-19T03:52:38;100424.00;;;26.86;71.97
54948;BME280;41113;41.882;12.530;2022-08-19T03:55:05;100425.25;;;26.95;71.82
54948;BME280;41113;41.882;12.530;2022-08-19T03:57:30;100415.88;;;26.96;71.35
54948;BME280;41113;41.882;12.530;2022-08-19T03:59:56;100429.09;;;26.94;71.15
54948;BME280;41113;41.882;12.530;2022-08-19T04:02:21;100440.88;;;26.90;71.05
54948;BME280;41113;41.882;12.530;2022-08-19T04:04:47;100443.88;;;26.88;71.45
54948;BME280;41113;41.882;12.530;2022-08-19T04:07:15;100445.97;;;26.81;71.10
54948;BME280;41113;41.882;12.530;2022-08-19T04:09:46;100433.59;;;26.84;71.07
54948;BME280;41113;41.882;12.530;2022-08-19T04:12:14;100436.09;;;26.85;71.10
54948;BME280;41113;41.882;12.530;2022-08-19T04:14:40;100442.13;;;26.82;71.04
54948;BME280;41113;41.882;12.530;2022-08-19T04:17:06;100434.94;;;26.81;70.75
54948;BME280;41113;41.882;12.530;2022-08-19T04:19:33;100434.69;;;26.83;70.76
54948;BME280;41113;41.882;12.530;2022-08-19T04:21:59;100425.84;;;26.81;70.44
54948;BME280;41113;41.882;12.530;2022-08-19T04:24:25;100422.25;;;26.80;70.26
54948;BME280;41113;41.882;12.530;2022-08-19T04:26:50;100424.59;;;26.72;70.62
54948;BME280;41113;41.882;12.530;2022-08-19T04:29:19;100425.41;;;26.72;70.08
54948;BME280;41113;41.882;12.530;2022-08-19T04:31:46;100421.50;;;26.68;70.01
54948;BME280;41113;41.882;12.530;2022-08-19T04:34:13;100425.81;;;26.64;70.12
54948;BME280;41113;41.882;12.530;2022-08-19T04:36:41;100439.56;;;26.64;70.02
54948;BME280;41113;41.882;12.530;2022-08-19T04:39:16;100438.91;;;26.57;70.10
54948;BME280;41113;41.882;12.530;2022-08-19T04:41:43;100445.50;;;26.56;70.12
54948;BME280;41113;41.882;12.530;2022-08-19T04:44:28;100437.22;;;26.56;69.96
54948;BME280;41113;41.882;12.530;2022-08-19T04:46:56;100438.06;;;26.56;69.81
54948;BME280;41113;41.882;12.530;2022-08-19T04:49:22;100423.38;;;26.51;69.63
54948;BME280;41113;41.882;12.530;2022-08-19T04:51:49;100436.56;;;26.49;69.63
54948;BME280;41113;41.882;12.530;2022-08-19T04:54:16;100431.38;;;26.52;69.12
54948;BME280;41113;41.882;12.530;2022-08-19T04:56:42;100433.34;;;26.85;68.04
54948;BME280;41113;41.882;12.530;2022-08-19T04:59:09;100440.41;;;27.82;64.74
54948;BME280;41113;41.882;12.530;2022-08-19T05:01:36;100448.72;;;28.79;61.46
54948;BME280;41113;41.882;12.530;2022-08-19T05:04:04;100451.41;;;29.70;58.68
54948;BME280;41113;41.882;12.530;2022-08-19T05:06:30;100443.66;;;30.40;56.81
54948;BME280;41113;41.882;12.530;2022-08-19T05:08:58;100446.56;;;31.06;55.20
54948;BME280;41113;41.882;12.530;2022-08-19T05:11:26;100452.22;;;32.06;52.10
54948;BME280;41113;41.882;12.530;2022-08-19T05:13:53;100443.31;;;32.64;50.56
54948;BME280;41113;41.882;12.530;2022-08-19T05:16:20;100451.09;;;33.06;49.74
54948;BME280;41113;41.882;12.530;2022-08-19T05:18:47;100448.50;;;33.72;47.40
54948;BME280;41113;41.882;12.530;2022-08-19T05:21:31;100444.38;;;34.18;46.89
54948;BME280;41113;41.882;12.530;2022-08-19T05:24:16;100440.56;;;34.70;45.98
54948;BME280;41113;41.882;12.530;2022-08-19T05:26:44;100434.25;;;34.83;44.03
54948;BME280;41113;41.882;12.530;2022-08-19T05:29:20;100437.13;;;35.11;42.73
54948;BME280;41113;41.882;12.530;2022-08-19T05:31:47;100440.16;;;35.61;41.13
54948;BME280;41113;41.882;12.530;2022-08-19T05:34:14;100440.06;;;35.66;40.16
54948;BME280;41113;41.882;12.530;2022-08-19T05:36:42;100433.66;;;34.49;45.69
54948;BME280;41113;41.882;12.530;2022-08-19T05:39:11;100432.28;;;32.54;47.56
54948;BME280;41113;41.882;12.530;2022-08-19T05:41:47;100426.00;;;31.12;51.26
54948;BME280;41113;41.882;12.530;2022-08-19T05:44:13;100431.50;;;30.51;55.02
54948;BME280;41113;41.882;12.530;2022-08-19T05:46:41;100427.22;;;30.08;55.55
54948;BME280;41113;41.882;12.530;2022-08-19T05:49:08;100433.81;;;29.50;57.02
54948;BME280;41113;41.882;12.530;2022-08-19T05:51:35;100436.69;;;29.60;56.91
54948;BME280;41113;41.882;12.530;2022-08-19T05:54:03;100425.94;;;30.51;54.03
54948;BME280;41113;41.882;12.530;2022-08-19T05:56:29;100422.63;;;31.66;51.53
54948;BME280;41113;41.882;12.530;2022-08-19T05:58:57;100416.56;;;32.24;49.80
54948;BME280;41113;41.882;12.530;2022-08-19T06:01:24;100425.56;;;33.28;47.83
54948;BME280;41113;41.882;12.530;2022-08-19T06:03:50;100424.19;;;34.45;45.24
54948;BME280;41113;41.882;12.530;2022-08-19T06:06:16;100415.75;;;35.20;43.72
54948;BME280;41113;41.882;12.530;2022-08-19T06:08:43;100419.97;;;35.64;43.83
54948;BME280;41113;41.882;12.530;2022-08-19T06:11:21;100421.00;;;35.68;40.33
54948;BME280;41113;41.882;12.530;2022-08-19T06:13:50;100416.66;;;35.75;42.84
54948;BME280;41113;41.882;12.530;2022-08-19T06:16:21;100422.88;;;35.59;40.34
54948;BME280;41113;41.882;12.530;2022-08-19T06:18:52;100431.03;;;35.55;41.39
54948;BME280;41113;41.882;12.530;2022-08-19T06:21:22;100427.47;;;35.82;41.77
54948;BME280;41113;41.882;12.530;2022-08-19T06:23:49;100428.22;;;36.37;42.36
54948;BME280;41113;41.882;12.530;2022-08-19T06:26:16;100427.97;;;36.61;41.99
54948;BME280;41113;41.882;12.530;2022-08-19T06:28:46;100432.28;;;36.81;41.59
54948;BME280;41113;41.882;12.530;2022-08-19T06:31:19;100430.91;;;36.42;41.00
54948;BME280;41113;41.882;12.530;2022-08-19T06:33:46;100438.44;;;35.92;42.38
54948;BME280;41113;41.882;12.530;2022-08-19T06:36:27;100433.25;;;36.13;39.65
54948;BME280;41113;41.882;12.530;2022-08-19T06:38:55;100438.72;;;36.82;39.78
54948;BME280;41113;41.882;12.530;2022-08-19T06:41:22;100431.09;;;35.82;41.45
54948;BME280;41113;41.882;12.530;2022-08-19T06:43:47;100442.94;;;35.47;41.33
54948;BME280;41113;41.882;12.530;2022-08-19T06:46:14;100451.44;;;34.90;42.32
54948;BME280;41113;41.882;12.530;2022-08-19T06:48:40;100447.34;;;34.64;42.57
54948;BME280;41113;41.882;12.530;2022-08-19T06:51:06;100455.88;;;34.11;42.04
54948;BME280;41113;41.882;12.530;2022-08-19T06:53:32;100456.19;;;33.81;43.72
54948;BME280;41113;41.882;12.530;2022-08-19T06:55:58;100456.88;;;33.44;44.08
54948;BME280;41113;41.882;12.530;2022-08-19T06:58:25;100462.22;;;33.06;44.83
54948;BME280;41113;41.882;12.530;2022-08-19T07:00:51;100466.66;;;32.68;45.20
54948;BME280;41113;41.882;12.530;2022-08-19T07:03:16;100468.00;;;32.21;45.93
54948;BME280;41113;41.882;12.530;2022-08-19T07:05:43;100467.06;;;31.71;47.03
54948;BME280;41113;41.882;12.530;2022-08-19T07:08:09;100465.72;;;31.38;48.04
54948;BME280;41113;41.882;12.530;2022-08-19T07:10:35;100476.00;;;31.22;48.13
54948;BME280;41113;41.882;12.530;2022-08-19T07:13:02;100478.72;;;31.02;48.55
54948;BME280;41113;41.882;12.530;2022-08-19T07:15:28;100485.34;;;30.60;48.79
54948;BME280;41113;41.882;12.530;2022-08-19T07:17:54;100494.78;;;30.64;49.09
54948;BME280;41113;41.882;12.530;2022-08-19T07:20:19;100489.28;;;31.15;47.92
54948;BME280;41113;41.882;12.530;2022-08-19T07:22:45;100494.84;;;31.61;46.37
54948;BME280;41113;41.882;12.530;2022-08-19T07:25:11;100484.25;;;31.88;45.77
54948;BME280;41113;41.882;12.530;2022-08-19T07:27:38;100495.00;;;32.10;45.36
54948;BME280;41113;41.882;12.530;2022-08-19T07:30:05;100491.38;;;32.10;45.50
54948;BME280;41113;41.882;12.530;2022-08-19T07:32:31;100494.56;;;31.73;46.43
54948;BME280;41113;41.882;12.530;2022-08-19T07:34:56;100497.00;;;31.95;46.06
54948;BME280;41113;41.882;12.530;2022-08-19T07:37:23;100503.91;;;32.02;45.77
54948;BME280;41113;41.882;12.530;2022-08-19T07:39:48;100503.63;;;32.04;44.77
54948;BME280;41113;41.882;12.530;2022-08-19T07:42:14;100499.19;;;32.03;44.96
54948;BME280;41113;41.882;12.530;2022-08-19T07:44:40;100495.97;;;31.35;46.03
54948;BME280;41113;41.882;12.530;2022-08-19T07:47:06;100502.81;;;30.76;47.51
54948;BME280;41113;41.882;12.530;2022-08-19T07:49:32;100510.75;;;30.52;47.91
54948;BME280;41113;41.882;12.530;2022-08-19T07:52:05;100519.03;;;30.32;48.63
54948;BME280;41113;41.882;12.530;2022-08-19T07:54:34;100516.25;;;30.27;48.93
54948;BME280;41113;41.882;12.530;2022-08-19T07:57:01;100520.47;;;30.55;48.54
54948;BME280;41113;41.882;12.530;2022-08-19T07:59:27;100522.00;;;31.08;47.28
54948;BME280;41113;41.882;12.530;2022-08-19T08:01:53;100511.50;;;31.46;46.35
54948;BME280;41113;41.882;12.530;2022-08-19T08:04:19;100514.00;;;31.73;45.13
54948;BME280;41113;41.882;12.530;2022-08-19T08:07:05;100504.78;;;31.93;44.98
54948;BME280;41113;41.882;12.530;2022-08-19T08:09:51;100502.00;;;31.98;44.68
54948;BME280;41113;41.882;12.530;2022-08-19T08:12:20;100495.63;;;31.87;42.79
54948;BME280;41113;41.882;12.530;2022-08-19T08:14:51;100497.03;;;31.74;43.71
54948;BME280;41113;41.882;12.530;2022-08-19T08:17:20;100507.31;;;31.74;43.45
54948;BME280;41113;41.882;12.530;2022-08-19T08:19:46;100504.81;;;31.62;43.70
54948;BME280;41113;41.882;12.530;2022-08-19T08:22:14;100508.69;;;31.81;42.77
54948;BME280;41113;41.882;12.530;2022-08-19T08:25:07;100508.41;;;31.78;41.97
54948;BME280;41113;41.882;12.530;2022-08-19T08:27:38;100505.34;;;31.84;42.00
54948;BME280;41113;41.882;12.530;2022-08-19T08:30:09;100517.84;;;31.87;42.81
54948;BME280;41113;41.882;12.530;2022-08-19T08:32:36;100512.84;;;31.89;42.69
54948;BME280;41113;41.882;12.530;2022-08-19T08:35:06;100522.81;;;32.00;43.28
54948;BME280;41113;41.882;12.530;2022-08-19T08:37:33;100513.03;;;32.23;42.74
54948;BME280;41113;41.882;12.530;2022-08-19T08:39:58;100507.47;;;32.28;42.77
54948;BME280;41113;41.882;12.530;2022-08-19T08:42:32;100509.06;;;32.39;42.28
54948;BME280;41113;41.882;12.530;2022-08-19T08:45:05;100510.25;;;32.28;42.66
54948;BME280;41113;41.882;12.530;2022-08-19T08:47:35;100523.66;;;31.96;43.22
54948;BME280;41113;41.882;12.530;2022-08-19T08:50:32;100518.72;;;31.37;46.57
54948;BME280;41113;41.882;12.530;2022-08-19T08:53:02;100516.41;;;30.78;48.70
54948;BME280;41113;41.882;12.530;2022-08-19T08:55:30;100523.06;;;30.72;48.79
54948;BME280;41113;41.882;12.530;2022-08-19T08:58:01;100520.75;;;30.53;50.31
54948;BME280;41113;41.882;12.530;2022-08-19T09:00:31;100518.75;;;30.28;49.73
54948;BME280;41113;41.882;12.530;2022-08-19T09:02:57;100537.22;;;30.13;49.99
54948;BME280;41113;41.882;12.530;2022-08-19T09:05:30;100527.75;;;29.29;53.91
54948;BME280;41113;41.882;12.530;2022-08-19T09:08:05;100534.22;;;29.13;54.16
54948;BME280;41113;41.882;12.530;2022-08-19T09:10:38;100534.34;;;28.96;55.48
54948;BME280;41113;41.882;12.530;2022-08-19T09:15:55;100515.72;;;29.46;56.19
54948;BME280;41113;41.882;12.530;2022-08-19T09:18:22;100524.34;;;29.54;55.32
54948;BME280;41113;41.882;12.530;2022-08-19T09:20:48;100517.84;;;29.38;55.60
54948;BME280;41113;41.882;12.530;2022-08-19T09:23:13;100513.78;;;29.19;56.25
54948;BME280;41113;41.882;12.530;2022-08-19T09:25:39;100512.75;;;29.25;56.12
54948;BME280;41113;41.882;12.530;2022-08-19T09:28:06;100515.31;;;29.64;55.20
54948;BME280;41113;41.882;12.530;2022-08-19T09:30:38;100512.75;;;29.99;54.84
54948;BME280;41113;41.882;12.530;2022-08-19T09:33:04;100526.78;;;30.35;53.48
54948;BME280;41113;41.882;12.530;2022-08-19T09:35:30;100510.88;;;30.78;52.54
54948;BME280;41113;41.882;12.530;2022-08-19T09:37:56;100511.41;;;30.64;52.43
54948;BME280;41113;41.882;12.530;2022-08-19T09:40:22;100519.34;;;30.46;52.57
54948;BME280;41113;41.882;12.530;2022-08-19T09:42:47;100518.94;;;30.17;52.13
54948;BME280;41113;41.882;12.530;2022-08-19T09:45:15;100518.47;;;29.88;52.54
54948;BME280;41113;41.882;12.530;2022-08-19T09:47:41;100525.88;;;29.72;53.12
54948;BME280;41113;41.882;12.530;2022-08-19T09:50:08;100518.19;;;29.84;52.35
54948;BME280;41113;41.882;12.530;2022-08-19T09:52:35;100528.03;;;30.07;51.81
54948;BME280;41113;41.882;12.530;2022-08-19T09:55:03;100515.16;;;30.38;49.62
54948;BME280;41113;41.882;12.530;2022-08-19T09:57:29;100522.94;;;30.41;50.00
54948;BME280;41113;41.882;12.530;2022-08-19T09:59:54;100519.16;;;30.68;49.80
54948;BME280;41113;41.882;12.530;2022-08-19T10:02:20;100521.28;;;30.50;50.29
54948;BME280;41113;41.882;12.530;2022-08-19T10:04:45;100514.63;;;30.41;50.54
54948;BME280;41113;41.882;12.530;2022-08-19T10:07:29;100520.94;;;30.26;50.36
54948;BME280;41113;41.882;12.530;2022-08-19T10:09:55;100521.81;;;30.37;49.84
54948;BME280;41113;41.882;12.530;2022-08-19T10:12:21;100517.94;;;30.38;49.38
54948;BME280;41113;41.882;12.530;2022-08-19T10:14:47;100517.38;;;30.36;49.06
54948;BME280;41113;41.882;12.530;2022-08-19T10:17:13;100505.88;;;30.70;47.02
54948;BME280;41113;41.882;12.530;2022-08-19T10:19:39;100513.13;;;31.06;47.29
54948;BME280;41113;41.882;12.530;2022-08-19T10:22:06;100505.69;;;31.32;46.56
54948;BME280;41113;41.882;12.530;2022-08-19T10:24:33;100504.84;;;31.21;46.89
54948;BME280;41113;41.882;12.530;2022-08-19T10:26:59;100504.81;;;31.47;46.35
54948;BME280;41113;41.882;12.530;2022-08-19T10:29:28;100490.94;;;31.47;47.05
54948;BME280;41113;41.882;12.530;2022-08-19T10:31:54;100485.69;;;31.55;46.48
54948;BME280;41113;41.882;12.530;2022-08-19T10:34:21;100481.78;;;31.62;45.54
54948;BME280;41113;41.882;12.530;2022-08-19T10:36:46;100486.53;;;31.31;46.30
54948;BME280;41113;41.882;12.530;2022-08-19T10:39:12;100480.41;;;31.03;46.53
54948;BME280;41113;41.882;12.530;2022-08-19T10:41:39;100477.59;;;30.78;46.46
54948;BME280;41113;41.882;12.530;2022-08-19T10:44:11;100482.22;;;30.57;45.08
54948;BME280;41113;41.882;12.530;2022-08-19T10:46:39;100492.47;;;30.46;45.92
54948;BME280;41113;41.882;12.530;2022-08-19T10:49:09;100504.84;;;30.23;46.75
54948;BME280;41113;41.882;12.530;2022-08-19T10:51:35;100512.38;;;30.28;46.55
54948;BME280;41113;41.882;12.530;2022-08-19T10:54:19;100505.44;;;30.30;47.31
54948;BME280;41113;41.882;12.530;2022-08-19T10:56:45;100514.63;;;30.41;48.35
54948;BME280;41113;41.882;12.530;2022-08-19T10:59:19;100518.47;;;30.35;49.40
54948;BME280;41113;41.882;12.530;2022-08-19T11:01:45;100506.69;;;30.65;48.86
54948;BME280;41113;41.882;12.530;2022-08-19T11:04:11;100520.19;;;30.56;50.03
54948;BME280;41113;41.882;12.530;2022-08-19T11:06:39;100510.72;;;30.37;50.84
54948;BME280;41113;41.882;12.530;2022-08-19T11:09:07;100518.38;;;30.15;51.73
54948;BME280;41113;41.882;12.530;2022-08-19T11:11:33;100523.72;;;29.84;52.75
54948;BME280;41113;41.882;12.530;2022-08-19T11:14:05;100525.28;;;29.65;53.71
54948;BME280;41113;41.882;12.530;2022-08-19T11:16:30;100512.44;;;29.54;54.13
54948;BME280;41113;41.882;12.530;2022-08-19T11:18:58;100515.50;;;29.25;55.51
54948;BME280;41113;41.882;12.530;2022-08-19T11:21:29;100520.44;;;29.18;56.71
54948;BME280;41113;41.882;12.530;2022-08-19T11:24:01;100535.06;;;29.13;56.01
54948;BME280;41113;41.882;12.530;2022-08-19T11:26:28;100527.75;;;29.29;54.92
54948;BME280;41113;41.882;12.530;2022-08-19T11:28:54;100526.91;;;29.61;54.35
54948;BME280;41113;41.882;12.530;2022-08-19T11:31:29;100526.09;;;29.65;55.53
54948;BME280;41113;41.882;12.530;2022-08-19T11:34:03;100527.88;;;29.82;55.01
54948;BME280;41113;41.882;12.530;2022-08-19T11:36:30;100532.38;;;29.93;53.60
54948;BME280;41113;41.882;12.530;2022-08-19T11:38:56;100529.41;;;30.04;53.07
54948;BME280;41113;41.882;12.530;2022-08-19T11:41:22;100527.16;;;30.01;52.37
54948;BME280;41113;41.882;12.530;2022-08-19T11:43:49;100520.94;;;29.79;52.56
54948;BME280;41113;41.882;12.530;2022-08-19T11:46:16;100519.94;;;29.95;52.21
54948;BME280;41113;41.882;12.530;2022-08-19T11:48:43;100508.59;;;30.02;52.10
54948;BME280;41113;41.882;12.530;2022-08-19T11:51:12;100502.88;;;30.19;51.77
54948;BME280;41113;41.882;12.530;2022-08-19T11:53:38;100510.69;;;30.27;51.35
54948;BME280;41113;41.882;12.530;2022-08-19T11:56:05;100502.06;;;30.18;51.45
54948;BME280;41113;41.882;12.530;2022-08-19T11:58:31;100491.47;;;30.05;51.69
54948;BME280;41113;41.882;12.530;2022-08-19T12:00:57;100509.69;;;29.96;51.81
54948;BME280;41113;41.882;12.530;2022-08-19T12:03:23;100503.44;;;30.16;51.20
54948;BME280;41113;41.882;12.530;2022-08-19T12:05:48;100504.06;;;30.33;50.85
54948;BME280;41113;41.882;12.530;2022-08-19T12:08:15;100492.47;;;30.51;50.20
54948;BME280;41113;41.882;12.530;2022-08-19T12:10:41;100487.56;;;30.74;49.86
54948;BME280;41113;41.882;12.530;2022-08-19T12:13:08;100485.91;;;30.73;50.01
54948;BME280;41113;41.882;12.530;2022-08-19T12:15:38;100484.25;;;30.77;49.77
54948;BME280;41113;41.882;12.530;2022-08-19T12:18:05;100478.75;;;30.92;49.48
54948;BME280;41113;41.882;12.530;2022-08-19T12:20:35;100474.28;;;31.01;48.87
54948;BME280;41113;41.882;12.530;2022-08-19T12:23:01;100465.97;;;31.01;49.25
54948;BME280;41113;41.882;12.530;2022-08-19T12:25:26;100461.53;;;30.95;48.64
54948;BME280;41113;41.882;12.530;2022-08-19T12:27:51;100442.97;;;30.90;48.54
54948;BME280;41113;41.882;12.530;2022-08-19T12:30:17;100455.97;;;30.85;48.03
54948;BME280;41113;41.882;12.530;2022-08-19T12:32:43;100442.69;;;30.92;48.16
54948;BME280;41113;41.882;12.530;2022-08-19T12:35:08;100445.16;;;30.88;47.91
54948;BME280;41113;41.882;12.530;2022-08-19T12:37:35;100454.31;;;30.84;47.32
54948;BME280;41113;41.882;12.530;2022-08-19T12:40:01;100466.22;;;30.89;47.30
54948;BME280;41113;41.882;12.530;2022-08-19T12:42:27;100465.41;;;30.79;47.30
54948;BME280;41113;41.882;12.530;2022-08-19T12:44:52;100463.44;;;30.74;47.32
54948;BME280;41113;41.882;12.530;2022-08-19T12:47:18;100469.25;;;30.62;45.45